sensor_id;sensor_type;location;lat;lon;timestamp;pressure;altitude;pressure_sealevel;temperature;humidity
71948;BME280;63257;55.082;38.772;2023-03-23T00:01:15;99842.72;;;5.88;59.77
71948;BME280;63257;55.082;38.772;2023-03-23T00:03:51;99839.19;;;5.89;59.79
71948;BME280;63257;55.082;38.772;2023-03-23T00:06:19;99836.63;;;5.87;60.15
71948;BME280;63257;55.082;38.772;2023-03-23T00:08:47;99838.22;;;5.91;59.86
71948;BME280;63257;55.082;38.772;2023-03-23T00:11:14;99836.44;;;5.93;59.57
71948;BME280;63257;55.082;38.772;2023-03-23T00:13:42;99837.28;;;5.94;59.98
71948;BME280;63257;55.082;38.772;2023-03-23T00:16:10;99836.56;;;5.89;59.80
71948;BME280;63257;55.082;38.772;2023-03-23T00:18:50;99833.00;;;5.91;60.35
71948;BME280;63257;55.082;38.772;2023-03-23T00:21:23;99841.69;;;5.92;59.91
71948;BME280;63257;55.082;38.772;2023-03-23T00:23:51;99830.56;;;5.87;60.16
71948;BME280;63257;55.082;38.772;2023-03-23T00:26:18;99823.41;;;5.90;60.26
71948;BME280;63257;55.082;38.772;2023-03-23T00:28:44;99823.72;;;5.83;60.02
71948;BME280;63257;55.082;38.772;2023-03-23T00:31:14;99823.97;;;5.75;60.29
71948;BME280;63257;55.082;38.772;2023-03-23T00:33:40;99838.94;;;5.71;60.61
71948;BME280;63257;55.082;38.772;2023-03-23T00:36:08;99838.44;;;5.60;61.36
71948;BME280;63257;55.082;38.772;2023-03-23T00:38:37;99838.81;;;5.49;61.23
71948;BME280;63257;55.082;38.772;2023-03-23T00:41:04;99840.69;;;5.46;61.95
71948;BME280;63257;55.082;38.772;2023-03-23T00:43:31;99838.03;;;5.47;62.10
71948;BME280;63257;55.082;38.772;2023-03-23T00:46:03;99836.25;;;5.48;61.82
71948;BME280;63257;55.082;38.772;2023-03-23T00:48:36;99816.59;;;5.36;61.81
71948;BME280;63257;55.082;38.772;2023-03-23T00:51:06;99839.69;;;5.50;61.67
71948;BME280;63257;55.082;38.772;2023-03-23T00:53:35;99832.84;;;5.46;61.95
71948;BME280;63257;55.082;38.772;2023-03-23T00:56:02;99836.19;;;5.49;62.07
71948;BME280;63257;55.082;38.772;2023-03-23T00:58:28;99829.34;;;5.45;62.21
71948;BME280;63257;55.082;38.772;2023-03-23T01:00:54;99809.72;;;5.33;62.19
71948;BME280;63257;55.082;38.772;2023-03-23T01:03:22;99827.69;;;5.42;62.60
71948;BME280;63257;55.082;38.772;2023-03-23T01:05:51;99823.34;;;5.43;62.44
71948;BME280;63257;55.082;38.772;2023-03-23T01:08:18;99819.16;;;5.37;62.55
71948;BME280;63257;55.082;38.772;2023-03-23T01:10:45;99817.50;;;5.35;62.67
71948;BME280;63257;55.082;38.772;2023-03-23T01:13:12;99807.16;;;5.32;62.50
71948;BME280;63257;55.082;38.772;2023-03-23T01:15:38;99819.31;;;5.33;62.59
71948;BME280;63257;55.082;38.772;2023-03-23T01:18:04;99812.38;;;5.32;62.64
71948;BME280;63257;55.082;38.772;2023-03-23T01:20:31;99769.91;;;4.97;63.04
71948;BME280;63257;55.082;38.772;2023-03-23T01:22:58;99808.81;;;5.07;63.53
71948;BME280;63257;55.082;38.772;2023-03-23T01:25:30;99817.41;;;5.11;63.67
71948;BME280;63257;55.082;38.772;2023-03-23T01:27:57;99804.41;;;5.08;63.80
71948;BME280;63257;55.082;38.772;2023-03-23T01:30:24;99812.09;;;5.14;63.21
71948;BME280;63257;55.082;38.772;2023-03-23T01:32:50;99805.19;;;5.12;63.27
71948;BME280;63257;55.082;38.772;2023-03-23T01:35:18;99802.69;;;5.08;63.75
71948;BME280;63257;55.082;38.772;2023-03-23T01:37:45;99801.75;;;5.09;64.00
71948;BME280;63257;55.082;38.772;2023-03-23T01:40:14;99799.13;;;5.09;64.15
71948;BME280;63257;55.082;38.772;2023-03-23T01:42:41;99799.91;;;5.13;63.87
71948;BME280;63257;55.082;38.772;2023-03-23T01:47:50;99792.50;;;4.99;64.35
71948;BME280;63257;55.082;38.772;2023-03-23T01:50:19;99810.72;;;5.02;63.90
71948;BME280;63257;55.082;38.772;2023-03-23T01:52:50;99801.13;;;5.03;63.86
71948;BME280;63257;55.082;38.772;2023-03-23T01:55:18;99795.78;;;5.06;64.10
71948;BME280;63257;55.082;38.772;2023-03-23T01:57:45;99801.84;;;5.06;64.48
71948;BME280;63257;55.082;38.772;2023-03-23T02:00:14;99803.41;;;5.12;64.03
71948;BME280;63257;55.082;38.772;2023-03-23T02:02:48;99793.72;;;5.16;63.85
71948;BME280;63257;55.082;38.772;2023-03-23T02:05:23;99782.34;;;5.17;63.86
71948;BME280;63257;55.082;38.772;2023-03-23T02:07:51;99768.72;;;5.07;63.88
71948;BME280;63257;55.082;38.772;2023-03-23T02:10:17;99793.47;;;5.23;64.01
71948;BME280;63257;55.082;38.772;2023-03-23T02:12:43;99747.81;;;5.05;63.73
71948;BME280;63257;55.082;38.772;2023-03-23T02:15:11;99774.13;;;5.28;63.61
71948;BME280;63257;55.082;38.772;2023-03-23T02:18:31;99779.44;;;5.24;63.91
71948;BME280;63257;55.082;38.772;2023-03-23T02:26:53;99773.50;;;4.94;65.21
71948;BME280;63257;55.082;38.772;2023-03-23T02:34:53;99775.50;;;4.86;65.70
71948;BME280;63257;55.082;38.772;2023-03-23T02:37:58;99778.97;;;4.86;65.43
71948;BME280;63257;55.082;38.772;2023-03-23T02:40:32;99764.25;;;4.84;65.75
71948;BME280;63257;55.082;38.772;2023-03-23T02:42:59;99783.28;;;4.87;65.72
71948;BME280;63257;55.082;38.772;2023-03-23T02:45:29;99778.94;;;4.88;65.90
71948;BME280;63257;55.082;38.772;2023-03-23T02:47:56;99781.59;;;4.86;65.73
71948;BME280;63257;55.082;38.772;2023-03-23T02:50:24;99786.97;;;4.82;66.23
71948;BME280;63257;55.082;38.772;2023-03-23T02:52:54;99793.09;;;4.81;66.09
71948;BME280;63257;55.082;38.772;2023-03-23T02:55:22;99795.88;;;4.76;66.40
71948;BME280;63257;55.082;38.772;2023-03-23T02:57:52;99776.16;;;4.66;66.78
71948;BME280;63257;55.082;38.772;2023-03-23T03:00:19;99784.41;;;4.80;66.38
71948;BME280;63257;55.082;38.772;2023-03-23T03:02:53;99786.22;;;4.78;66.59
71948;BME280;63257;55.082;38.772;2023-03-23T03:08:00;99782.00;;;4.72;67.03
71948;BME280;63257;55.082;38.772;2023-03-23T03:18:28;99770.72;;;4.72;67.01
71948;BME280;63257;55.082;38.772;2023-03-23T03:21:00;99773.22;;;4.75;67.36
71948;BME280;63257;55.082;38.772;2023-03-23T03:23:32;99772.53;;;4.70;66.93
71948;BME280;63257;55.082;38.772;2023-03-23T03:26:02;99770.81;;;4.69;67.49
71948;BME280;63257;55.082;38.772;2023-03-23T03:28:47;99776.94;;;4.68;67.25
71948;BME280;63257;55.082;38.772;2023-03-23T03:31:19;99769.03;;;4.69;67.19
71948;BME280;63257;55.082;38.772;2023-03-23T03:33:46;99768.03;;;4.73;67.51
71948;BME280;63257;55.082;38.772;2023-03-23T03:36:18;99761.25;;;4.68;67.55
71948;BME280;63257;55.082;38.772;2023-03-23T03:38:50;99772.31;;;4.76;67.65
71948;BME280;63257;55.082;38.772;2023-03-23T03:41:17;99763.72;;;4.72;67.42
71948;BME280;63257;55.082;38.772;2023-03-23T03:48:27;99773.84;;;4.83;67.74
71948;BME280;63257;55.082;38.772;2023-03-23T03:50:54;99771.22;;;4.83;67.47
71948;BME280;63257;55.082;38.772;2023-03-23T03:53:23;99755.56;;;4.82;67.59
71948;BME280;63257;55.082;38.772;2023-03-23T03:55:49;99770.22;;;4.87;67.93
71948;BME280;63257;55.082;38.772;2023-03-23T03:58:16;99764.97;;;4.87;67.48
71948;BME280;63257;55.082;38.772;2023-03-23T04:01:03;99769.53;;;4.82;68.13
71948;BME280;63257;55.082;38.772;2023-03-23T04:03:34;99768.47;;;4.88;68.15
71948;BME280;63257;55.082;38.772;2023-03-23T04:06:09;99770.09;;;4.92;68.18
71948;BME280;63257;55.082;38.772;2023-03-23T04:08:36;99768.47;;;4.88;67.88
71948;BME280;63257;55.082;38.772;2023-03-23T04:11:08;99770.97;;;4.91;68.32
71948;BME280;63257;55.082;38.772;2023-03-23T04:13:34;99744.16;;;4.84;68.29
71948;BME280;63257;55.082;38.772;2023-03-23T04:16:23;99767.31;;;4.97;68.04
71948;BME280;63257;55.082;38.772;2023-03-23T04:18:49;99756.91;;;4.95;67.80
71948;BME280;63257;55.082;38.772;2023-03-23T04:21:17;99741.44;;;4.87;67.99
71948;BME280;63257;55.082;38.772;2023-03-23T04:23:47;99746.44;;;4.95;67.48
71948;BME280;63257;55.082;38.772;2023-03-23T04:26:14;99757.44;;;5.05;67.63
71948;BME280;63257;55.082;38.772;2023-03-23T04:28:43;99763.06;;;5.19;67.59
71948;BME280;63257;55.082;38.772;2023-03-23T04:31:31;99762.06;;;5.23;67.31
71948;BME280;63257;55.082;38.772;2023-03-23T04:34:11;99755.25;;;5.18;67.22
71948;BME280;63257;55.082;38.772;2023-03-23T04:36:45;99758.50;;;5.24;67.26
71948;BME280;63257;55.082;38.772;2023-03-23T04:39:16;99741.13;;;5.23;66.85
71948;BME280;63257;55.082;38.772;2023-03-23T04:41:43;99763.31;;;5.37;66.80
71948;BME280;63257;55.082;38.772;2023-03-23T04:44:21;99755.41;;;5.40;66.78
71948;BME280;63257;55.082;38.772;2023-03-23T04:47:03;99762.06;;;5.49;66.53
71948;BME280;63257;55.082;38.772;2023-03-23T04:49:33;99746.16;;;5.53;66.94
71948;BME280;63257;55.082;38.772;2023-03-23T04:52:14;99731.72;;;5.43;66.56
71948;BME280;63257;55.082;38.772;2023-03-23T04:54:50;99751.03;;;5.64;66.73
71948;BME280;63257;55.082;38.772;2023-03-23T04:57:16;99758.16;;;5.60;66.25
71948;BME280;63257;55.082;38.772;2023-03-23T04:59:52;99751.69;;;5.46;67.14
71948;BME280;63257;55.082;38.772;2023-03-23T05:02:23;99756.56;;;5.56;66.44
71948;BME280;63257;55.082;38.772;2023-03-23T05:04:51;99753.13;;;5.54;66.88
71948;BME280;63257;55.082;38.772;2023-03-23T05:07:20;99746.28;;;5.50;67.04
71948;BME280;63257;55.082;38.772;2023-03-23T05:09:49;99747.88;;;5.54;66.92
71948;BME280;63257;55.082;38.772;2023-03-23T05:12:19;99746.53;;;5.68;66.10
71948;BME280;63257;55.082;38.772;2023-03-23T05:15:11;99731.41;;;5.52;66.43
71948;BME280;63257;55.082;38.772;2023-03-23T05:17:37;99747.19;;;5.74;65.98
71948;BME280;63257;55.082;38.772;2023-03-23T05:20:13;99734.09;;;5.74;66.23
71948;BME280;63257;55.082;38.772;2023-03-23T05:22:43;99731.63;;;5.70;67.01
71948;BME280;63257;55.082;38.772;2023-03-23T05:25:12;99742.34;;;5.64;67.34
71948;BME280;63257;55.082;38.772;2023-03-23T05:27:43;99738.13;;;5.59;67.72
71948;BME280;63257;55.082;38.772;2023-03-23T05:30:26;99733.19;;;5.50;67.95
71948;BME280;63257;55.082;38.772;2023-03-23T05:32:55;99740.59;;;5.39;68.11
71948;BME280;63257;55.082;38.772;2023-03-23T05:35:41;99738.22;;;5.31;68.25
71948;BME280;63257;55.082;38.772;2023-03-23T05:38:08;99722.41;;;5.34;68.82
71948;BME280;63257;55.082;38.772;2023-03-23T05:40:35;99741.31;;;5.42;68.18
71948;BME280;63257;55.082;38.772;2023-03-23T05:43:21;99734.34;;;5.43;68.84
71948;BME280;63257;55.082;38.772;2023-03-23T05:46:07;99729.88;;;5.45;69.03
71948;BME280;63257;55.082;38.772;2023-03-23T05:48:35;99744.44;;;5.54;68.59
71948;BME280;63257;55.082;38.772;2023-03-23T05:51:03;99743.41;;;5.58;68.52
71948;BME280;63257;55.082;38.772;2023-03-23T05:53:31;99744.06;;;5.63;68.70
71948;BME280;63257;55.082;38.772;2023-03-23T05:55:59;99719.22;;;5.51;68.44
71948;BME280;63257;55.082;38.772;2023-03-23T05:58:44;99743.88;;;5.69;68.90
71948;BME280;63257;55.082;38.772;2023-03-23T06:01:10;99743.16;;;5.64;68.05
71948;BME280;63257;55.082;38.772;2023-03-23T06:03:40;99740.78;;;5.58;68.56
71948;BME280;63257;55.082;38.772;2023-03-23T06:06:22;99731.16;;;5.58;68.60
71948;BME280;63257;55.082;38.772;2023-03-23T06:09:03;99742.09;;;5.70;68.50
71948;BME280;63257;55.082;38.772;2023-03-23T06:11:49;99740.28;;;5.72;68.60
71948;BME280;63257;55.082;38.772;2023-03-23T06:14:32;99726.31;;;5.71;68.40
71948;BME280;63257;55.082;38.772;2023-03-23T06:16:59;99721.97;;;5.72;68.59
71948;BME280;63257;55.082;38.772;2023-03-23T06:19:26;99734.75;;;5.80;68.65
71948;BME280;63257;55.082;38.772;2023-03-23T06:22:01;99739.78;;;5.86;68.34
71948;BME280;63257;55.082;38.772;2023-03-23T06:24:43;99736.97;;;5.90;68.13
71948;BME280;63257;55.082;38.772;2023-03-23T06:27:12;99729.81;;;5.95;68.20
71948;BME280;63257;55.082;38.772;2023-03-23T06:29:42;99732.28;;;6.00;68.14
71948;BME280;63257;55.082;38.772;2023-03-23T06:32:10;99723.22;;;6.09;67.88
71948;BME280;63257;55.082;38.772;2023-03-23T06:34:39;99737.19;;;6.32;67.17
71948;BME280;63257;55.082;38.772;2023-03-23T06:37:37;99737.81;;;6.38;66.97
71948;BME280;63257;55.082;38.772;2023-03-23T06:40:13;99730.84;;;6.37;66.73
71948;BME280;63257;55.082;38.772;2023-03-23T06:42:43;99726.66;;;6.55;66.83
71948;BME280;63257;55.082;38.772;2023-03-23T06:45:30;99719.66;;;6.56;65.61
71948;BME280;63257;55.082;38.772;2023-03-23T06:48:15;99731.09;;;6.75;65.89
71948;BME280;63257;55.082;38.772;2023-03-23T06:50:46;99716.38;;;6.71;65.50
71948;BME280;63257;55.082;38.772;2023-03-23T06:53:15;99732.16;;;6.92;64.95
71948;BME280;63257;55.082;38.772;2023-03-23T06:55:43;99731.84;;;7.00;64.88
71948;BME280;63257;55.082;38.772;2023-03-23T06:58:12;99724.50;;;7.08;64.43
71948;BME280;63257;55.082;38.772;2023-03-23T07:00:39;99740.91;;;7.13;64.38
71948;BME280;63257;55.082;38.772;2023-03-23T07:03:08;99710.78;;;7.01;64.27
71948;BME280;63257;55.082;38.772;2023-03-23T07:05:36;99723.13;;;7.20;63.92
71948;BME280;63257;55.082;38.772;2023-03-23T07:08:04;99727.00;;;7.32;64.32
71948;BME280;63257;55.082;38.772;2023-03-23T07:10:36;99726.91;;;7.33;64.27
71948;BME280;63257;55.082;38.772;2023-03-23T07:13:03;99706.59;;;7.18;64.06
71948;BME280;63257;55.082;38.772;2023-03-23T07:15:39;99719.13;;;7.32;64.17
71948;BME280;63257;55.082;38.772;2023-03-23T07:18:06;99723.53;;;7.31;63.89
71948;BME280;63257;55.082;38.772;2023-03-23T07:20:39;99718.91;;;7.36;63.88
71948;BME280;63257;55.082;38.772;2023-03-23T07:23:05;99705.91;;;7.33;63.93
71948;BME280;63257;55.082;38.772;2023-03-23T07:25:41;99715.28;;;7.39;63.55
71948;BME280;63257;55.082;38.772;2023-03-23T07:28:11;99689.25;;;7.34;63.97
71948;BME280;63257;55.082;38.772;2023-03-23T07:30:37;99716.22;;;7.58;64.17
71948;BME280;63257;55.082;38.772;2023-03-23T07:33:05;99689.22;;;7.55;63.93
71948;BME280;63257;55.082;38.772;2023-03-23T07:35:32;99717.91;;;7.78;64.57
71948;BME280;63257;55.082;38.772;2023-03-23T07:38:03;99707.06;;;7.86;63.82
71948;BME280;63257;55.082;38.772;2023-03-23T07:40:30;99712.69;;;7.97;63.00
71948;BME280;63257;55.082;38.772;2023-03-23T07:43:04;99701.44;;;7.94;62.93
71948;BME280;63257;55.082;38.772;2023-03-23T07:45:52;99714.31;;;8.00;63.12
71948;BME280;63257;55.082;38.772;2023-03-23T07:48:21;99694.63;;;7.90;63.13
71948;BME280;63257;55.082;38.772;2023-03-23T07:50:47;99691.31;;;8.05;63.13
71948;BME280;63257;55.082;38.772;2023-03-23T07:53:15;99700.28;;;8.19;62.57
71948;BME280;63257;55.082;38.772;2023-03-23T07:55:44;99692.13;;;8.25;62.02
71948;BME280;63257;55.082;38.772;2023-03-23T07:58:30;99691.13;;;8.27;62.06
71948;BME280;63257;55.082;38.772;2023-03-23T08:00:58;99708.72;;;8.44;62.32
71948;BME280;63257;55.082;38.772;2023-03-23T08:03:28;99680.69;;;8.45;61.27
71948;BME280;63257;55.082;38.772;2023-03-23T08:06:34;99691.69;;;8.71;61.98
71948;BME280;63257;55.082;38.772;2023-03-23T08:09:31;99695.56;;;8.63;60.66
71948;BME280;63257;55.082;38.772;2023-03-23T08:12:15;99696.41;;;8.64;60.50
71948;BME280;63257;55.082;38.772;2023-03-23T08:15:01;99684.97;;;8.65;61.06
71948;BME280;63257;55.082;38.772;2023-03-23T08:17:46;99674.06;;;8.73;60.79
71948;BME280;63257;55.082;38.772;2023-03-23T08:20:42;99688.84;;;8.75;61.24
71948;BME280;63257;55.082;38.772;2023-03-23T08:23:25;99681.94;;;8.55;61.32
71948;BME280;63257;55.082;38.772;2023-03-23T08:26:43;99693.19;;;8.40;61.85
71948;BME280;63257;55.082;38.772;2023-03-23T08:29:32;99684.72;;;8.52;61.79
71948;BME280;63257;55.082;38.772;2023-03-23T08:32:17;99681.16;;;8.71;61.79
71948;BME280;63257;55.082;38.772;2023-03-23T08:35:03;99654.84;;;8.71;62.09
71948;BME280;63257;55.082;38.772;2023-03-23T08:37:55;99658.13;;;8.93;61.98
71948;BME280;63257;55.082;38.772;2023-03-23T08:40:41;99662.44;;;9.12;61.26
71948;BME280;63257;55.082;38.772;2023-03-23T08:43:25;99661.66;;;9.27;60.68
71948;BME280;63257;55.082;38.772;2023-03-23T08:45:58;99656.75;;;9.37;60.10
71948;BME280;63257;55.082;38.772;2023-03-23T08:48:43;99647.13;;;9.36;60.11
71948;BME280;63257;55.082;38.772;2023-03-23T08:51:31;99650.31;;;9.59;59.52
71948;BME280;63257;55.082;38.772;2023-03-23T08:54:20;99650.25;;;9.60;58.95
71948;BME280;63257;55.082;38.772;2023-03-23T08:57:02;99648.38;;;9.62;59.30
71948;BME280;63257;55.082;38.772;2023-03-23T08:59:49;99640.38;;;9.64;59.19
71948;BME280;63257;55.082;38.772;2023-03-23T09:02:35;99639.97;;;9.72;59.03
71948;BME280;63257;55.082;38.772;2023-03-23T09:05:13;99639.47;;;9.81;58.77
71948;BME280;63257;55.082;38.772;2023-03-23T09:08:15;99626.78;;;9.88;58.93
71948;BME280;63257;55.082;38.772;2023-03-23T09:10:41;99630.94;;;9.92;58.43
71948;BME280;63257;55.082;38.772;2023-03-23T09:13:07;99624.50;;;9.97;58.21
71948;BME280;63257;55.082;38.772;2023-03-23T09:15:34;99591.34;;;9.77;59.15
71948;BME280;63257;55.082;38.772;2023-03-23T09:17:59;99622.47;;;9.87;58.54
71948;BME280;63257;55.082;38.772;2023-03-23T09:20:29;99607.66;;;9.84;58.31
71948;BME280;63257;55.082;38.772;2023-03-23T09:22:56;99606.28;;;9.93;58.23
71948;BME280;63257;55.082;38.772;2023-03-23T09:25:25;99603.31;;;9.99;58.78
71948;BME280;63257;55.082;38.772;2023-03-23T09:27:54;99596.81;;;10.21;58.00
71948;BME280;63257;55.082;38.772;2023-03-23T09:30:24;99589.16;;;10.16;57.39
71948;BME280;63257;55.082;38.772;2023-03-23T09:32:53;99586.97;;;10.08;58.09
71948;BME280;63257;55.082;38.772;2023-03-23T09:35:19;99593.75;;;10.12;57.27
71948;BME280;63257;55.082;38.772;2023-03-23T09:37:48;99596.16;;;10.17;57.90
71948;BME280;63257;55.082;38.772;2023-03-23T09:40:28;99587.97;;;10.22;57.67
71948;BME280;63257;55.082;38.772;2023-03-23T09:43:17;99591.00;;;10.30;57.21
71948;BME280;63257;55.082;38.772;2023-03-23T09:50:24;99577.22;;;10.41;56.62
71948;BME280;63257;55.082;38.772;2023-03-23T09:53:04;99579.97;;;10.39;56.46
71948;BME280;63257;55.082;38.772;2023-03-23T09:55:35;99573.75;;;10.24;55.87
71948;BME280;63257;55.082;38.772;2023-03-23T10:00:37;99562.97;;;10.13;57.17
71948;BME280;63257;55.082;38.772;2023-03-23T10:03:10;99573.66;;;10.42;56.02
71948;BME280;63257;55.082;38.772;2023-03-23T10:05:51;99560.78;;;10.51;55.97
71948;BME280;63257;55.082;38.772;2023-03-23T10:08:20;99570.50;;;10.65;55.47
71948;BME280;63257;55.082;38.772;2023-03-23T10:15:29;99571.38;;;10.80;53.96
71948;BME280;63257;55.082;38.772;2023-03-23T10:20:48;99554.66;;;10.51;55.48
71948;BME280;63257;55.082;38.772;2023-03-23T10:25:52;99548.66;;;10.63;54.39
71948;BME280;63257;55.082;38.772;2023-03-23T10:28:39;99547.53;;;10.67;54.11
71948;BME280;63257;55.082;38.772;2023-03-23T10:31:11;99548.34;;;10.82;53.70
71948;BME280;63257;55.082;38.772;2023-03-23T10:33:41;99536.59;;;10.88;53.36
71948;BME280;63257;55.082;38.772;2023-03-23T10:36:34;99541.13;;;11.15;53.60
71948;BME280;63257;55.082;38.772;2023-03-23T10:39:11;99540.44;;;11.11;52.96
71948;BME280;63257;55.082;38.772;2023-03-23T10:41:39;99548.84;;;11.18;52.85
71948;BME280;63257;55.082;38.772;2023-03-23T10:47:37;99539.84;;;11.49;51.90
71948;BME280;63257;55.082;38.772;2023-03-23T10:50:06;99549.09;;;11.28;51.92
71948;BME280;63257;55.082;38.772;2023-03-23T10:52:41;99542.16;;;11.27;52.27
71948;BME280;63257;55.082;38.772;2023-03-23T10:55:17;99547.06;;;11.18;52.09
71948;BME280;63257;55.082;38.772;2023-03-23T10:57:59;99536.47;;;11.33;52.28
71948;BME280;63257;55.082;38.772;2023-03-23T11:00:27;99538.38;;;11.31;50.79
71948;BME280;63257;55.082;38.772;2023-03-23T11:03:22;99545.47;;;11.16;50.31
71948;BME280;63257;55.082;38.772;2023-03-23T11:05:51;99529.56;;;11.45;50.29
71948;BME280;63257;55.082;38.772;2023-03-23T11:08:21;99517.00;;;11.48;50.67
71948;BME280;63257;55.082;38.772;2023-03-23T11:10:51;99482.81;;;11.18;49.47
71948;BME280;63257;55.082;38.772;2023-03-23T11:13:20;99524.06;;;11.62;50.04
71948;BME280;63257;55.082;38.772;2023-03-23T11:15:48;99525.94;;;11.60;48.87
71948;BME280;63257;55.082;38.772;2023-03-23T11:18:22;99527.66;;;11.47;49.04
71948;BME280;63257;55.082;38.772;2023-03-23T11:20:56;99489.16;;;11.43;49.56
71948;BME280;63257;55.082;38.772;2023-03-23T11:23:40;99504.59;;;11.63;49.81
71948;BME280;63257;55.082;38.772;2023-03-23T11:26:29;99472.63;;;11.53;50.67
71948;BME280;63257;55.082;38.772;2023-03-23T11:28:57;99481.25;;;11.70;48.75
71948;BME280;63257;55.082;38.772;2023-03-23T11:31:34;99476.63;;;11.74;48.22
71948;BME280;63257;55.082;38.772;2023-03-23T11:34:04;99473.78;;;12.04;50.16
71948;BME280;63257;55.082;38.772;2023-03-23T11:36:37;99437.06;;;12.25;48.97
71948;BME280;63257;55.082;38.772;2023-03-23T11:39:21;99463.75;;;12.73;48.33
71948;BME280;63257;55.082;38.772;2023-03-23T11:42:18;99469.00;;;13.12;46.91
71948;BME280;63257;55.082;38.772;2023-03-23T11:44:45;99499.50;;;13.05;47.08
71948;BME280;63257;55.082;38.772;2023-03-23T11:50:14;99488.28;;;13.51;46.18
71948;BME280;63257;55.082;38.772;2023-03-23T11:55:26;99460.59;;;13.55;45.19
71948;BME280;63257;55.082;38.772;2023-03-23T11:57:55;99490.31;;;13.72;45.06
71948;BME280;63257;55.082;38.772;2023-03-23T12:00:26;99480.63;;;13.60;44.97
71948;BME280;63257;55.082;38.772;2023-03-23T12:02:59;99468.19;;;13.84;44.65
71948;BME280;63257;55.082;38.772;2023-03-23T12:05:32;99473.59;;;14.07;43.67
71948;BME280;63257;55.082;38.772;2023-03-23T12:10:55;99469.91;;;14.32;43.77
71948;BME280;63257;55.082;38.772;2023-03-23T12:21:53;99465.66;;;14.99;41.92
71948;BME280;63257;55.082;38.772;2023-03-23T12:43:47;99447.75;;;15.68;39.18
71948;BME280;63257;55.082;38.772;2023-03-23T12:49:01;99449.03;;;15.85;38.01
71948;BME280;63257;55.082;38.772;2023-03-23T12:51:56;99455.72;;;15.24;37.58
71948;BME280;63257;55.082;38.772;2023-03-23T12:54:37;99454.69;;;14.92;37.92
71948;BME280;63257;55.082;38.772;2023-03-23T12:59:49;99453.94;;;16.01;36.69
71948;BME280;63257;55.082;38.772;2023-03-23T13:02:28;99455.59;;;16.02;35.99
71948;BME280;63257;55.082;38.772;2023-03-23T13:07:53;99446.91;;;16.21;37.69
71948;BME280;63257;55.082;38.772;2023-03-23T13:12:48;99461.75;;;15.70;39.41
71948;BME280;63257;55.082;38.772;2023-03-23T13:23:40;99443.38;;;14.43;42.72
71948;BME280;63257;55.082;38.772;2023-03-23T13:26:17;99419.19;;;13.66;44.45
71948;BME280;63257;55.082;38.772;2023-03-23T13:31:30;99436.19;;;13.63;44.83
71948;BME280;63257;55.082;38.772;2023-03-23T13:39:56;99439.81;;;15.13;41.70
71948;BME280;63257;55.082;38.772;2023-03-23T13:42:28;99422.91;;;15.02;41.83
71948;BME280;63257;55.082;38.772;2023-03-23T13:47:45;99434.28;;;14.12;43.42
71948;BME280;63257;55.082;38.772;2023-03-23T13:50:26;99426.13;;;13.55;43.09
71948;BME280;63257;55.082;38.772;2023-03-23T13:52:55;99419.19;;;13.04;42.54
71948;BME280;63257;55.082;38.772;2023-03-23T13:55:48;99416.88;;;13.00;42.72
71948;BME280;63257;55.082;38.772;2023-03-23T13:58:25;99422.06;;;13.01;44.29
71948;BME280;63257;55.082;38.772;2023-03-23T14:01:12;99420.44;;;13.12;44.07
71948;BME280;63257;55.082;38.772;2023-03-23T14:03:40;99415.81;;;13.02;44.23
71948;BME280;63257;55.082;38.772;2023-03-23T14:06:15;99414.25;;;12.87;44.15
71948;BME280;63257;55.082;38.772;2023-03-23T14:09:26;99420.53;;;12.86;43.73
71948;BME280;63257;55.082;38.772;2023-03-23T14:11:56;99420.94;;;12.80;43.10
71948;BME280;63257;55.082;38.772;2023-03-23T14:14:31;99419.81;;;12.45;42.52
71948;BME280;63257;55.082;38.772;2023-03-23T14:17:17;99421.72;;;12.56;42.96
71948;BME280;63257;55.082;38.772;2023-03-23T14:19:49;99394.41;;;12.43;43.17
71948;BME280;63257;55.082;38.772;2023-03-23T14:22:40;99414.00;;;12.53;42.82
71948;BME280;63257;55.082;38.772;2023-03-23T14:25:12;99412.41;;;12.37;42.51
71948;BME280;63257;55.082;38.772;2023-03-23T14:27:43;99413.16;;;12.39;42.74
71948;BME280;63257;55.082;38.772;2023-03-23T14:30:20;99416.31;;;12.32;42.93
71948;BME280;63257;55.082;38.772;2023-03-23T14:32:48;99382.34;;;12.00;42.89
71948;BME280;63257;55.082;38.772;2023-03-23T14:35:26;99400.88;;;12.26;43.49
71948;BME280;63257;55.082;38.772;2023-03-23T14:37:54;99411.97;;;12.31;43.30
71948;BME280;63257;55.082;38.772;2023-03-23T14:40:27;99398.75;;;12.18;43.59
71948;BME280;63257;55.082;38.772;2023-03-23T14:42:55;99402.47;;;12.02;43.99
71948;BME280;63257;55.082;38.772;2023-03-23T14:45:23;99402.56;;;12.01;44.30
71948;BME280;63257;55.082;38.772;2023-03-23T14:48:01;99407.44;;;11.94;44.41
71948;BME280;63257;55.082;38.772;2023-03-23T14:50:37;99396.69;;;11.83;44.34
71948;BME280;63257;55.082;38.772;2023-03-23T14:55:43;99390.09;;;11.63;44.81
71948;BME280;63257;55.082;38.772;2023-03-23T15:05:17;99412.97;;;11.49;45.89
71948;BME280;63257;55.082;38.772;2023-03-23T15:07:48;99394.09;;;11.28;45.36
71948;BME280;63257;55.082;38.772;2023-03-23T15:10:19;99404.88;;;11.25;46.05
71948;BME280;63257;55.082;38.772;2023-03-23T15:12:47;99398.38;;;11.16;45.90
71948;BME280;63257;55.082;38.772;2023-03-23T15:17:52;99395.34;;;10.95;46.61
71948;BME280;63257;55.082;38.772;2023-03-23T15:20:26;99387.31;;;10.82;47.28
71948;BME280;63257;55.082;38.772;2023-03-23T15:22:53;99381.97;;;10.69;48.19
71948;BME280;63257;55.082;38.772;2023-03-23T15:25:23;99388.50;;;10.64;47.90
71948;BME280;63257;55.082;38.772;2023-03-23T15:27:58;99397.16;;;10.37;48.65
71948;BME280;63257;55.082;38.772;2023-03-23T15:30:51;99387.31;;;10.10;49.81
71948;BME280;63257;55.082;38.772;2023-03-23T15:33:21;99384.09;;;9.91;50.53
71948;BME280;63257;55.082;38.772;2023-03-23T15:35:56;99369.91;;;9.63;51.02
71948;BME280;63257;55.082;38.772;2023-03-23T15:38:29;99375.03;;;9.50;51.64
71948;BME280;63257;55.082;38.772;2023-03-23T15:40:58;99376.16;;;9.46;51.98